Wolf 59 — CGBP — position and weather

sailwx.info

Track history (hours):
 
Tides and Currents Weather Stations Pressure Air Temp Water Temp Dewpoint Dewpoint Depression Visibility Wind Speed Wind Dir Waves Ship Positions

Wolf 59

Last reported at 2016-Jul-01 02:33 UTC. Time now 2016-Jul-01 02:51 UTC.
Position N 49°07' W 123°11'.

; draft 2.6 m.

Type: Military. MMSI: 316011515.

Date/timePositionNaut miles runAvg speedWind from/ knotsBaromVisibWave heightAir tempDewpointWater temp
2016-Jul-01 02:33N 49°07' W 123°11'0 0.0
2016-Jul-01 01:33N 49°07' W 123°11'0 0.0
2016-Jul-01 00:33N 49°07' W 123°11'0 0.2
2016-Jun-30 22:33N 49°07' W 123°11'10 9.8
2016-Jun-30 21:33N 49°07' W 123°26'1110.6
2016-Jun-30 20:34N 49°13' W 123°39'1111.3
2016-Jun-30 19:33N 49°20' W 123°53'8 7.9
2016-Jun-30 18:34N 49°16' W 124°03'4 4.1
2016-Jun-30 17:33N 49°16' W 124°09'0 0.0
2016-Jun-30 16:33N 49°16' W 124°09'0 0.1
2016-Jun-30 15:34N 49°16' W 124°09'7 6.9
2016-Jun-30 14:33N 49°15' W 123°59'2 2.1
2016-Jun-30 13:33N 49°16' W 123°55'10 9.7
2016-Jun-30 12:33N 49°13' W 123°41'7 6.9
2016-Jun-30 11:33N 49°10' W 123°32'1010.3
2016-Jun-30 10:33N 48°60' W 123°29'1010.1
2016-Jun-30 09:33N 48°55' W 123°16'8 8.4
2016-Jun-30 08:33N 48°51' W 123°05'1010.3
2016-Jun-30 07:33N 48°58' W 123°16'10 9.7
2016-Jun-30 06:33N 49°06' W 123°24'8 8.1
2016-Jun-30 05:33N 49°14' W 123°22'7 7.0
2016-Jun-30 04:33N 49°21' W 123°19'5 4.9
2016-Jun-30 03:33N 49°25' W 123°19'8 7.5
2016-Jun-30 02:33N 49°33' W 123°20'5 5.0
2016-Jun-30 01:33N 49°29' W 123°16'6 5.9
2016-Jun-30 00:33N 49°23' W 123°18'9 8.8
2016-Jun-29 23:33N 49°18' W 123°07'1 0.6
2016-Jun-29 22:33N 49°18' W 123°07'0 0.0
2016-Jun-29 21:33N 49°18' W 123°07'2 1.6
2016-Jun-29 20:34N 49°19' W 123°09'9 8.6
2016-Jun-29 19:33N 49°25' W 123°18'6 6.4
2016-Jun-29 18:33N 49°31' W 123°20'3 3.3
2016-Jun-29 17:34N 49°29' W 123°16'7 7.0
2016-Jun-29 16:33N 49°25' W 123°24'6 5.6
2016-Jun-29 15:33N 49°22' W 123°31'1514.8
2016-Jun-29 14:33N 49°22' W 123°54'1212.2
2016-Jun-29 13:33N 49°23' W 124°13'1010.2
2016-Jun-29 12:33N 49°26' W 124°28'1010.2
2016-Jun-29 11:33N 49°35' W 124°36'1110.6
2016-Jun-29 10:33N 49°43' W 124°46'8 8.2
2016-Jun-29 09:33N 49°50' W 124°39'1111.0
2016-Jun-29 08:33N 49°45' W 124°23'1211.7
2016-Jun-29 07:33N 49°37' W 124°10'1111.0
2016-Jun-29 06:34N 49°27' W 124°03'1111.2
2016-Jun-29 05:33N 49°23' W 123°47'1010.2
2016-Jun-29 04:33N 49°16' W 123°36'7 6.9
2016-Jun-29 03:33N 49°10' W 123°30'1111.3
2016-Jun-29 02:34N 49°02' W 123°18'1211.6
2016-Jun-29 01:33N 48°54' W 123°05'9 8.9
2016-Jun-29 00:33N 48°46' W 123°02'10 9.0
2016-Jun-28 23:28N 48°43' W 123°16'4 2.3
2016-Jun-28 21:33N 48°46' W 123°22'9 8.3
2016-Jun-28 20:29N 48°54' W 123°28'6 2.8
2016-Jun-28 18:20N 48°52' W 123°19'6 7.4
2016-Jun-28 17:33N 48°57' W 123°22'2 1.7
2016-Jun-28 16:33N 48°58' W 123°23'4 4.0
2016-Jun-28 15:33N 48°57' W 123°18'1010.4
2016-Jun-28 14:33N 48°50' W 123°05'5 4.7
2016-Jun-28 13:33N 48°47' W 123°01'7 7.3
2016-Jun-28 12:33N 48°43' W 123°10'7 6.9
2016-Jun-28 11:33N 48°46' W 123°20'9 8.9
2016-Jun-28 10:32N 48°53' W 123°27'9 9.3
2016-Jun-28 09:33N 49°00' W 123°36'8 7.9
2016-Jun-28 08:33N 48°54' W 123°28'10 8.4
2016-Jun-28 07:22N 48°46' W 123°21'3 2.5
2016-Jun-28 06:08N 48°44' W 123°25'13 8.4
2016-Jun-28 04:33N 48°46' W 123°05'7 6.6
2016-Jun-28 03:34N 48°52' W 123°03'6 6.3
2016-Jun-28 02:33N 48°46' W 123°02'5 5.0
2016-Jun-28 01:33N 48°45' W 123°10'5 5.0
2016-Jun-28 00:33N 48°42' W 123°15'8 8.4
2016-Jun-27 23:33N 48°33' W 123°12'7 7.4
2016-Jun-27 22:33N 48°26' W 123°10'4 4.1
2016-Jun-27 21:34N 48°22' W 123°12'4 4.4
2016-Jun-27 20:34N 48°20' W 123°18'7 7.0
2016-Jun-27 19:34N 48°24' W 123°27'  
Track history (hours):
 
Tides and Currents Weather Stations Pressure Air Temp Water Temp Dewpoint Dewpoint Depression Visibility Wind Speed Wind Dir Waves Ship Positions

Wolf 59

Last reported at 2016-Jul-01 02:33 UTC. Time now 2016-Jul-01 02:51 UTC.
Position N 49°07' W 123°11'.

; draft 2.6 m.

Type: Military. MMSI: 316011515.

Date/timePositionNaut miles runAvg speedWind from/ knotsBaromVisibWave heightAir tempDewpointWater temp
2016-Jul-01 02:33N 49°07' W 123°11'0 0.0
2016-Jul-01 01:33N 49°07' W 123°11'0 0.0
2016-Jul-01 00:33N 49°07' W 123°11'0 0.2
2016-Jun-30 22:33N 49°07' W 123°11'10 9.8
2016-Jun-30 21:33N 49°07' W 123°26'1110.6
2016-Jun-30 20:34N 49°13' W 123°39'1111.3
2016-Jun-30 19:33N 49°20' W 123°53'8 7.9
2016-Jun-30 18:34N 49°16' W 124°03'4 4.1
2016-Jun-30 17:33N 49°16' W 124°09'0 0.0
2016-Jun-30 16:33N 49°16' W 124°09'0 0.1
2016-Jun-30 15:34N 49°16' W 124°09'7 6.9
2016-Jun-30 14:33N 49°15' W 123°59'2 2.1
2016-Jun-30 13:33N 49°16' W 123°55'10 9.7
2016-Jun-30 12:33N 49°13' W 123°41'7 6.9
2016-Jun-30 11:33N 49°10' W 123°32'1010.3
2016-Jun-30 10:33N 48°60' W 123°29'1010.1
2016-Jun-30 09:33N 48°55' W 123°16'8 8.4
2016-Jun-30 08:33N 48°51' W 123°05'1010.3
2016-Jun-30 07:33N 48°58' W 123°16'10 9.7
2016-Jun-30 06:33N 49°06' W 123°24'8 8.1
2016-Jun-30 05:33N 49°14' W 123°22'7 7.0
2016-Jun-30 04:33N 49°21' W 123°19'5 4.9
2016-Jun-30 03:33N 49°25' W 123°19'8 7.5
2016-Jun-30 02:33N 49°33' W 123°20'5 5.0
2016-Jun-30 01:33N 49°29' W 123°16'6 5.9
2016-Jun-30 00:33N 49°23' W 123°18'9 8.8
2016-Jun-29 23:33N 49°18' W 123°07'1 0.6
2016-Jun-29 22:33N 49°18' W 123°07'0 0.0
2016-Jun-29 21:33N 49°18' W 123°07'2 1.6
2016-Jun-29 20:34N 49°19' W 123°09'9 8.6
2016-Jun-29 19:33N 49°25' W 123°18'6 6.4
2016-Jun-29 18:33N 49°31' W 123°20'3 3.3
2016-Jun-29 17:34N 49°29' W 123°16'7 7.0
2016-Jun-29 16:33N 49°25' W 123°24'6 5.6
2016-Jun-29 15:33N 49°22' W 123°31'1514.8
2016-Jun-29 14:33N 49°22' W 123°54'1212.2
2016-Jun-29 13:33N 49°23' W 124°13'1010.2
2016-Jun-29 12:33N 49°26' W 124°28'1010.2
2016-Jun-29 11:33N 49°35' W 124°36'1110.6
2016-Jun-29 10:33N 49°43' W 124°46'8 8.2
2016-Jun-29 09:33N 49°50' W 124°39'1111.0
2016-Jun-29 08:33N 49°45' W 124°23'1211.7
2016-Jun-29 07:33N 49°37' W 124°10'1111.0
2016-Jun-29 06:34N 49°27' W 124°03'1111.2
2016-Jun-29 05:33N 49°23' W 123°47'1010.2
2016-Jun-29 04:33N 49°16' W 123°36'7 6.9
2016-Jun-29 03:33N 49°10' W 123°30'1111.3
2016-Jun-29 02:34N 49°02' W 123°18'1211.6
2016-Jun-29 01:33N 48°54' W 123°05'9 8.9
2016-Jun-29 00:33N 48°46' W 123°02'10 9.0
2016-Jun-28 23:28N 48°43' W 123°16'4 2.3
2016-Jun-28 21:33N 48°46' W 123°22'9 8.3
2016-Jun-28 20:29N 48°54' W 123°28'6 2.8
2016-Jun-28 18:20N 48°52' W 123°19'6 7.4
2016-Jun-28 17:33N 48°57' W 123°22'2 1.7
2016-Jun-28 16:33N 48°58' W 123°23'4 4.0
2016-Jun-28 15:33N 48°57' W 123°18'1010.4
2016-Jun-28 14:33N 48°50' W 123°05'5 4.7
2016-Jun-28 13:33N 48°47' W 123°01'7 7.3
2016-Jun-28 12:33N 48°43' W 123°10'7 6.9
2016-Jun-28 11:33N 48°46' W 123°20'9 8.9
2016-Jun-28 10:32N 48°53' W 123°27'9 9.3
2016-Jun-28 09:33N 49°00' W 123°36'8 7.9
2016-Jun-28 08:33N 48°54' W 123°28'10 8.4
2016-Jun-28 07:22N 48°46' W 123°21'3 2.5
2016-Jun-28 06:08N 48°44' W 123°25'13 8.4
2016-Jun-28 04:33N 48°46' W 123°05'7 6.6
2016-Jun-28 03:34N 48°52' W 123°03'6 6.3
2016-Jun-28 02:33N 48°46' W 123°02'5 5.0
2016-Jun-28 01:33N 48°45' W 123°10'5 5.0
2016-Jun-28 00:33N 48°42' W 123°15'8 8.4
2016-Jun-27 23:33N 48°33' W 123°12'7 7.4
2016-Jun-27 22:33N 48°26' W 123°10'4 4.1
2016-Jun-27 21:34N 48°22' W 123°12'4 4.4
2016-Jun-27 20:34N 48°20' W 123°18'7 7.0
2016-Jun-27 19:34N 48°24' W 123°27'  

Dump ship's entire track history